Time;durP1;ratioP1;P1;durP2;ratioP2;P2;SDS_P1;SDS_P2;PMS_P1;PMS_P2;Temp;Humidity;BMP_temperature;BMP_pressure;BME280_temperature;BME280_humidity;BME280_pressure;Samples;Min_cycle;Max_cycle;Signal;HPM_P1;HPM_P2
2022/01/26 00:07:19;;;;;;;49.43;20.17;;;;;;;1.99;100.00;100849.72;4176709;28;20238;-63
2022/01/26 00:09:45;;;;;;;46.87;20.47;;;;;;;1.95;100.00;100857.84;4174576;28;22384;-64
2022/01/26 00:12:13;;;;;;;47.33;20.37;;;;;;;1.92;100.00;100852.72;4175385;28;22550;-64
2022/01/26 00:14:42;;;;;;;43.57;18.90;;;;;;;1.92;100.00;100858.84;4161805;28;20233;-64
2022/01/26 00:17:11;;;;;;;40.03;18.93;;;;;;;1.99;100.00;100852.34;4177767;28;20281;-64
2022/01/26 00:20:17;;;;;;;44.97;19.33;;;;;;;1.99;100.00;100844.47;4186357;28;21648;-63
2022/01/26 00:22:54;;;;;;;41.70;18.27;;;;;;;2.03;100.00;100845.97;4174295;28;20665;-66
2022/01/26 00:25:33;;;;;;;40.20;18.97;;;;;;;1.94;100.00;100843.84;4166318;28;20283;-63
2022/01/26 00:38:53;;;;;;;42.63;18.90;;;;;;;1.79;100.00;100852.53;4177290;28;21234;-66
2022/01/26 00:41:32;;;;;;;43.70;19.90;;;;;;;1.77;100.00;100854.38;4170149;28;20238;-63
2022/01/26 00:43:59;;;;;;;39.30;18.60;;;;;;;1.80;100.00;100855.06;4191892;28;20253;-67
2022/01/26 00:46:25;;;;;;;41.27;19.00;;;;;;;1.88;100.00;100859.91;4171193;28;21481;-64
2022/01/26 00:48:52;;;;;;;43.00;19.50;;;;;;;1.91;100.00;100857.13;4171983;28;20275;-67
2022/01/26 00:51:21;;;;;;;44.00;19.57;;;;;;;1.86;100.00;100865.25;4176362;28;22164;-67
2022/01/26 00:53:54;;;;;;;44.13;18.70;;;;;;;1.89;100.00;100858.97;4162506;28;20240;-64
2022/01/26 00:56:21;;;;;;;43.27;19.87;;;;;;;1.75;100.00;100858.84;4163629;28;22149;-64
2022/01/26 00:58:48;;;;;;;45.33;19.53;;;;;;;1.86;100.00;100856.53;4173826;28;20680;-64
2022/01/26 01:01:14;;;;;;;48.97;20.43;;;;;;;1.86;100.00;100851.28;4172701;28;20247;-65
2022/01/26 01:03:44;;;;;;;46.13;21.27;;;;;;;1.89;100.00;100858.97;4167318;28;23820;-67
2022/01/26 01:06:22;;;;;;;48.73;21.53;;;;;;;1.86;100.00;100854.75;4184922;28;20229;-65
2022/01/26 01:08:49;;;;;;;45.73;19.23;;;;;;;1.96;100.00;100860.34;4152942;28;20241;-64
2022/01/26 01:11:15;;;;;;;45.17;21.23;;;;;;;2.08;100.00;100853.63;4164791;28;20249;-64
2022/01/26 01:13:43;;;;;;;50.37;20.27;;;;;;;1.86;100.00;100849.50;4172787;28;22222;-65
2022/01/26 01:16:15;;;;;;;49.23;20.73;;;;;;;1.86;100.00;100844.25;4160701;28;25554;-65
2022/01/26 01:18:48;;;;;;;52.47;21.33;;;;;;;1.76;100.00;100840.41;4174571;28;20398;-68
2022/01/26 01:26:49;;;;;;;45.73;20.53;;;;;;;1.93;100.00;100850.03;4163250;28;20746;-65
2022/01/26 01:29:21;;;;;;;40.43;19.50;;;;;;;2.02;100.00;100844.31;4180129;28;20343;-64
2022/01/26 01:31:52;;;;;;;48.80;20.87;;;;;;;2.00;100.00;100840.91;4198219;28;21640;-65
2022/01/26 01:34:22;;;;;;;49.87;20.27;;;;;;;2.00;100.00;100835.66;4166117;28;20236;-65
2022/01/26 01:36:50;;;;;;;43.13;21.03;;;;;;;2.04;100.00;100821.44;4172563;28;20313;-67
2022/01/26 01:39:18;;;;;;;47.07;20.97;;;;;;;1.87;100.00;100830.22;4173433;28;20228;-66
2022/01/26 01:41:47;;;;;;;46.63;20.70;;;;;;;1.85;100.00;100825.94;4178535;28;20239;-67
2022/01/26 01:44:14;;;;;;;49.47;21.50;;;;;;;1.75;100.00;100822.09;4170045;28;20246;-64
2022/01/26 01:46:42;;;;;;;50.50;22.23;;;;;;;1.75;100.00;100828.19;4191676;28;20229;-64
2022/01/26 01:49:11;;;;;;;55.03;21.07;;;;;;;1.82;100.00;100831.34;4172049;28;20237;-63
2022/01/26 01:51:42;;;;;;;57.50;22.83;;;;;;;1.75;100.00;100824.72;4180346;28;20222;-64
2022/01/26 01:54:17;;;;;;;45.67;21.13;;;;;;;1.60;100.00;100814.09;4165665;28;21785;-65
2022/01/26 01:56:46;;;;;;;47.60;21.60;;;;;;;1.62;100.00;100820.13;4186392;28;20430;-65
2022/01/26 01:59:12;;;;;;;48.73;22.43;;;;;;;1.62;100.00;100821.91;4176873;28;20237;-65
2022/01/26 02:01:39;;;;;;;63.73;24.00;;;;;;;1.58;100.00;100817.72;4163631;28;21358;-64
2022/01/26 02:04:05;;;;;;;57.27;23.13;;;;;;;1.51;100.00;100819.81;4174270;28;20242;-65
2022/01/26 02:06:32;;;;;;;52.87;23.80;;;;;;;1.59;100.00;100820.28;4168547;28;20237;-65
2022/01/26 02:08:58;;;;;;;54.73;23.73;;;;;;;1.57;100.00;100822.13;4173364;28;20244;-67
2022/01/26 02:11:25;;;;;;;56.63;23.93;;;;;;;1.58;100.00;100821.19;4175088;28;20242;-65
2022/01/26 02:16:41;;;;;;;49.13;22.67;;;;;;;1.60;100.00;100816.72;4179466;28;20234;-65
2022/01/26 02:19:52;;;;;;;54.90;23.80;;;;;;;1.75;100.00;100819.50;4171698;28;20225;-65
2022/01/26 02:49:30;;;;;;;52.33;23.73;;;;;;;1.75;100.00;100816.88;4193050;28;20245;-65
2022/01/26 02:53:04;;;;;;;46.20;20.10;;;;;;;1.69;100.00;100808.38;4177072;28;22673;-65
2022/01/26 02:55:49;;;;;;;43.90;20.03;;;;;;;1.71;100.00;100812.69;4182596;28;20698;-64
2022/01/26 03:01:37;;;;;;;43.73;20.03;;;;;;;1.57;100.00;100809.03;4176665;28;20270;-65
2022/01/26 03:04:14;;;;;;;51.07;21.23;;;;;;;1.61;100.00;100810.53;4174804;28;20246;-65
2022/01/26 03:06:58;;;;;;;53.50;22.97;;;;;;;1.44;100.00;100800.91;4191065;28;22230;-64
2022/01/26 03:09:30;;;;;;;56.87;23.80;;;;;;;1.18;100.00;100798.75;4181511;28;21949;-64
2022/01/26 03:11:58;;;;;;;54.00;23.83;;;;;;;1.26;100.00;100801.84;4181223;28;20229;-66
2022/01/26 03:14:49;;;;;;;62.90;23.03;;;;;;;1.25;100.00;100803.63;4172422;28;20563;-66
2022/01/26 03:19:50;;;;;;;54.13;23.70;;;;;;;1.34;100.00;100811.97;4177435;28;20263;-65
2022/01/26 03:28:11;;;;;;;49.93;22.33;;;;;;;1.38;100.00;100806.50;4175297;28;20339;-66
2022/01/26 03:28:16;;;;;;;55.37;22.27;;;;;;;1.27;100.00;100803.56;4170342;28;20361;-65
2022/01/26 03:35:59;;;;;;;52.17;24.00;;;;;;;1.10;100.00;100799.16;4168434;28;20310;-63
2022/01/26 03:38:45;;;;;;;56.80;25.00;;;;;;;0.99;100.00;100793.56;4168334;28;20234;-65
2022/01/26 03:43:42;;;;;;;62.30;25.20;;;;;;;0.79;100.00;100789.28;4168980;28;20348;-63
2022/01/26 03:46:09;;;;;;;65.80;25.27;;;;;;;0.84;100.00;100795.16;4177318;28;20233;-64
2022/01/26 03:48:35;;;;;;;61.33;26.70;;;;;;;0.91;100.00;100786.06;4166250;28;20297;-64
2022/01/26 03:51:03;;;;;;;66.17;27.80;;;;;;;0.86;100.00;100792.47;4172278;28;20245;-65
2022/01/26 03:53:30;;;;;;;67.03;26.20;;;;;;;0.81;100.00;100793.53;4168264;28;20233;-65
2022/01/26 03:55:56;;;;;;;65.23;25.23;;;;;;;0.98;100.00;100791.88;4163782;28;20763;-65
2022/01/26 03:58:23;;;;;;;63.17;25.27;;;;;;;1.06;100.00;100800.22;4175049;28;20424;-65
2022/01/26 04:00:49;;;;;;;68.57;25.60;;;;;;;1.12;100.00;100797.28;4161509;28;20589;-64
2022/01/26 04:03:16;;;;;;;63.57;25.07;;;;;;;1.09;100.00;100804.44;4180317;28;20225;-69
2022/01/26 04:05:43;;;;;;;64.37;26.33;;;;;;;0.97;100.00;100801.50;4173820;28;20348;-65
2022/01/26 04:08:16;;;;;;;68.37;27.07;;;;;;;0.97;100.00;100800.66;4171275;28;20293;-65
2022/01/26 04:11:48;;;;;;;72.50;28.43;;;;;;;0.83;100.00;100807.41;4174073;28;20235;-63
2022/01/26 04:13:38;;;;;;;67.80;26.33;;;;;;;0.93;100.00;100799.09;4158610;28;20241;-64
2022/01/26 04:16:06;;;;;;;60.10;25.20;;;;;;;0.92;100.00;100800.03;4175076;28;20273;-65
2022/01/26 04:18:36;;;;;;;66.43;27.30;;;;;;;0.86;100.00;100795.94;4167902;28;20271;-66
2022/01/26 04:21:27;;;;;;;67.03;25.00;;;;;;;0.94;100.00;100799.03;4170375;28;20277;-64
2022/01/26 04:24:00;;;;;;;65.77;25.37;;;;;;;0.94;100.00;100795.56;4183674;28;21709;-64
2022/01/26 04:26:33;;;;;;;68.63;26.50;;;;;;;0.87;100.00;100795.03;4167382;28;20312;-64
2022/01/26 04:29:07;;;;;;;71.07;26.20;;;;;;;0.97;100.00;100798.88;4170688;28;20268;-69
2022/01/26 04:31:34;;;;;;;64.87;25.27;;;;;;;0.91;100.00;100790.47;4189980;28;22295;-64
2022/01/26 04:34:01;;;;;;;59.00;24.83;;;;;;;0.87;100.00;100786.28;4168598;28;20306;-63
2022/01/26 04:36:34;;;;;;;57.97;24.27;;;;;;;0.84;100.00;100788.16;4176200;28;20245;-67
2022/01/26 04:39:05;;;;;;;55.93;22.27;;;;;;;0.94;100.00;100790.34;4175164;28;20232;-67
2022/01/26 04:41:38;;;;;;;53.93;21.43;;;;;;;0.97;100.00;100790.19;4181554;28;20229;-64
2022/01/26 04:44:16;;;;;;;55.63;21.03;;;;;;;1.03;100.00;100793.34;4191757;28;22454;-64
2022/01/26 04:46:42;;;;;;;57.67;21.07;;;;;;;1.08;100.00;100787.88;4160257;28;20960;-64
2022/01/26 04:49:09;;;;;;;42.50;19.00;;;;;;;0.99;100.00;100783.94;4167589;28;20237;-66
2022/01/26 04:51:36;;;;;;;43.40;17.67;;;;;;;1.01;100.00;100792.56;4175840;28;20236;-64
2022/01/26 04:54:02;;;;;;;40.33;17.93;;;;;;;1.00;100.00;100790.03;4166561;28;21512;-63
2022/01/26 04:56:29;;;;;;;43.17;17.30;;;;;;;1.02;100.00;100785.56;4163721;28;23224;-64
2022/01/26 04:58:55;;;;;;;39.03;16.10;;;;;;;1.01;100.00;100783.88;4188571;28;22106;-64
2022/01/26 05:01:22;;;;;;;47.70;16.83;;;;;;;0.97;100.00;100775.31;4168714;28;20232;-66
2022/01/26 05:03:49;;;;;;;34.13;14.30;;;;;;;1.14;100.00;100781.47;4174815;28;23573;-66
2022/01/26 05:06:15;;;;;;;39.30;14.07;;;;;;;1.14;100.00;100769.22;4179132;28;21803;-65
2022/01/26 05:08:42;;;;;;;36.90;15.33;;;;;;;1.18;100.00;100767.31;4181881;28;20255;-64
2022/01/26 05:11:12;;;;;;;32.87;12.90;;;;;;;1.07;100.00;100762.59;4168162;28;20715;-63
2022/01/26 05:13:55;;;;;;;35.43;12.33;;;;;;;1.20;100.00;100766.31;4187213;28;20229;-63
2022/01/26 05:16:22;;;;;;;39.67;13.67;;;;;;;1.15;100.00;100763.06;4171117;28;21621;-68
2022/01/26 05:18:49;;;;;;;33.03;13.17;;;;;;;1.09;100.00;100752.88;4167373;28;20297;-64
2022/01/26 05:21:15;;;;;;;33.23;13.70;;;;;;;1.21;100.00;100762.75;4178900;28;20974;-63
2022/01/26 05:23:42;;;;;;;29.30;12.70;;;;;;;1.16;100.00;100763.91;4180411;28;20237;-66
2022/01/26 05:26:08;;;;;;;34.23;12.03;;;;;;;1.23;100.00;100758.28;4172709;28;20252;-64
2022/01/26 05:28:35;;;;;;;30.60;12.93;;;;;;;1.15;100.00;100757.00;4170732;28;20300;-64
2022/01/26 05:31:02;;;;;;;29.93;12.40;;;;;;;1.21;100.00;100761.91;4163073;28;22850;-66
2022/01/26 05:33:28;;;;;;;33.27;12.70;;;;;;;1.05;100.00;100757.44;4167417;28;20233;-65
2022/01/26 05:35:55;;;;;;;39.17;13.60;;;;;;;1.23;100.00;100758.28;4177319;28;20308;-62
2022/01/26 05:38:21;;;;;;;34.60;12.47;;;;;;;1.26;100.00;100759.88;4180346;28;21187;-63
2022/01/26 05:40:49;;;;;;;33.43;14.50;;;;;;;1.26;100.00;100765.13;4203514;28;20245;-64
2022/01/26 05:43:16;;;;;;;31.10;13.37;;;;;;;1.13;100.00;100764.06;4168168;28;21826;-66
2022/01/26 05:45:48;;;;;;;42.67;15.50;;;;;;;0.97;100.00;100763.97;4174174;28;20254;-63
2022/01/26 05:48:15;;;;;;;37.17;16.07;;;;;;;1.07;100.00;100761.75;4188378;28;22225;-65
2022/01/26 05:50:51;;;;;;;43.77;16.47;;;;;;;1.00;100.00;100769.06;4172167;28;21587;-64
2022/01/26 05:53:21;;;;;;;41.00;16.73;;;;;;;1.12;100.00;100767.59;4180101;28;21293;-68
2022/01/26 05:55:51;;;;;;;44.53;17.93;;;;;;;1.08;100.00;100769.53;4170919;28;22205;-63
2022/01/26 05:58:17;;;;;;;40.60;17.47;;;;;;;1.01;100.00;100766.38;4171786;28;21571;-64
2022/01/26 06:00:44;;;;;;;49.73;19.70;;;;;;;1.00;100.00;100769.06;4171764;28;20253;-66
2022/01/26 06:03:11;;;;;;;45.63;16.77;;;;;;;1.11;100.00;100766.75;4170111;28;20234;-63
2022/01/26 06:05:40;;;;;;;46.03;18.00;;;;;;;1.20;100.00;100766.31;4169588;28;20959;-64
2022/01/26 06:08:06;;;;;;;47.83;17.73;;;;;;;1.22;100.00;100767.06;4171011;28;20395;-64
2022/01/26 06:10:33;;;;;;;44.23;16.57;;;;;;;1.16;100.00;100758.66;4169833;28;20650;-68
2022/01/26 06:13:00;;;;;;;43.83;17.67;;;;;;;1.14;100.00;100756.13;4185913;28;20239;-64
2022/01/26 06:15:27;;;;;;;38.73;16.20;;;;;;;1.10;100.00;100753.72;4171466;28;20299;-65
2022/01/26 06:17:53;;;;;;;44.47;17.73;;;;;;;1.12;100.00;100752.72;4169632;28;20318;-68
2022/01/26 06:20:20;;;;;;;49.33;19.53;;;;;;;1.25;100.00;100759.06;4167338;28;22691;-65
2022/01/26 06:22:46;;;;;;;47.17;19.10;;;;;;;1.18;100.00;100756.81;4179181;28;21714;-66
2022/01/26 06:25:15;;;;;;;45.57;18.03;;;;;;;1.06;100.00;100753.03;4186516;28;20298;-65
2022/01/26 06:27:44;;;;;;;41.27;17.47;;;;;;;1.06;100.00;100747.81;4155030;28;21823;-67
2022/01/26 06:30:11;;;;;;;42.10;18.67;;;;;;;1.07;100.00;100748.66;4181256;28;20229;-65
2022/01/26 06:32:38;;;;;;;40.30;17.73;;;;;;;0.99;100.00;100746.41;4166298;28;20304;-63
2022/01/26 06:35:09;;;;;;;48.67;20.73;;;;;;;0.86;100.00;100743.53;4186103;28;21150;-63
2022/01/26 06:37:36;;;;;;;49.93;20.07;;;;;;;0.96;100.00;100747.41;4186128;28;20469;-65
2022/01/26 06:40:04;;;;;;;54.00;21.07;;;;;;;1.05;100.00;100746.09;4174868;28;21785;-68
2022/01/26 06:42:37;;;;;;;56.53;21.73;;;;;;;1.10;100.00;100744.13;4169673;28;20275;-65
2022/01/26 06:45:15;;;;;;;51.57;22.17;;;;;;;0.80;100.00;100746.47;4191851;28;20234;-68
2022/01/26 06:50:27;;;;;;;61.50;23.43;;;;;;;0.77;100.00;100750.09;4175627;28;21787;-64
2022/01/26 06:52:54;;;;;;;67.23;24.20;;;;;;;0.73;100.00;100748.53;4168007;28;20252;-65
2022/01/26 06:55:20;;;;;;;55.87;22.77;;;;;;;0.76;100.00;100753.63;4176292;28;20237;-62
2022/01/26 06:57:47;;;;;;;63.50;24.43;;;;;;;0.85;100.00;100749.72;4173561;28;20273;-67
2022/01/26 07:00:14;;;;;;;59.70;23.73;;;;;;;0.79;100.00;100745.59;4161029;28;22567;-63
2022/01/26 07:02:41;;;;;;;54.93;22.30;;;;;;;0.73;100.00;100742.47;4187065;28;21141;-64
2022/01/26 07:05:11;;;;;;;58.67;23.73;;;;;;;0.71;100.00;100742.53;4173826;28;25589;-65
2022/01/26 07:07:39;;;;;;;68.97;25.90;;;;;;;0.76;100.00;100740.53;4153051;28;20244;-63
2022/01/26 07:10:06;;;;;;;60.00;22.80;;;;;;;0.75;100.00;100744.06;4175094;28;25757;-62
2022/01/26 07:12:33;;;;;;;62.87;23.77;;;;;;;0.70;100.00;100746.03;4161379;28;20267;-63
2022/01/26 07:21:20;;;;;;;61.33;27.63;;;;;;;0.66;100.00;100739.28;4178930;28;21826;-66
2022/01/26 07:23:20;;;;;;;69.00;28.10;;;;;;;0.68;100.00;100731.34;4181102;28;20278;-64
2022/01/26 07:25:46;;;;;;;68.07;25.57;;;;;;;0.73;100.00;100734.59;4167042;28;20679;-66
2022/01/26 07:28:13;;;;;;;59.90;25.33;;;;;;;0.67;100.00;100727.88;4174467;28;20246;-64
2022/01/26 07:30:39;;;;;;;64.60;25.40;;;;;;;0.79;100.00;100729.88;4181006;28;20405;-65
2022/01/26 07:33:06;;;;;;;60.60;24.00;;;;;;;0.73;100.00;100735.44;4176236;28;20237;-65
2022/01/26 07:35:33;;;;;;;57.70;23.80;;;;;;;0.71;100.00;100737.28;4173073;28;21225;-66
2022/01/26 07:38:03;;;;;;;64.87;23.17;;;;;;;0.77;100.00;100736.13;4174072;28;22513;-64
2022/01/26 07:40:29;;;;;;;58.47;23.30;;;;;;;0.76;100.00;100732.66;4181708;28;20308;-63
2022/01/26 07:42:56;;;;;;;51.53;19.97;;;;;;;0.79;100.00;100737.75;4184199;28;20246;-63
2022/01/26 07:45:23;;;;;;;48.73;20.30;;;;;;;1.04;100.00;100744.41;4167934;28;20269;-67
2022/01/26 07:47:51;;;;;;;50.90;18.23;;;;;;;1.02;100.00;100746.25;4183016;28;22766;-63
2022/01/26 07:50:20;;;;;;;43.27;19.53;;;;;;;0.94;100.00;100748.41;4166773;28;21095;-65
2022/01/26 07:52:47;;;;;;;45.13;19.13;;;;;;;1.06;100.00;100750.41;4174454;28;20306;-64
2022/01/26 07:55:17;;;;;;;41.07;17.40;;;;;;;1.05;100.00;100746.09;4175907;28;20235;-66
2022/01/26 07:57:45;;;;;;;49.37;20.73;;;;;;;1.05;100.00;100746.09;4155651;28;20276;-66
2022/01/26 08:00:12;;;;;;;42.17;19.07;;;;;;;1.18;100.00;100741.94;4178666;28;21034;-65
2022/01/26 08:02:39;;;;;;;50.10;19.17;;;;;;;1.23;100.00;100745.16;4177020;28;20321;-63
2022/01/26 08:05:06;;;;;;;41.97;17.33;;;;;;;1.25;100.00;100745.94;4167687;28;20268;-61
2022/01/26 08:07:33;;;;;;;58.13;21.13;;;;;;;1.32;100.00;100737.78;4169623;28;20688;-64
2022/01/26 08:09:59;;;;;;;59.30;23.37;;;;;;;1.37;100.00;100735.75;4172983;28;21784;-64
2022/01/26 08:12:27;;;;;;;46.33;20.07;;;;;;;1.34;100.00;100741.19;4164887;28;20254;-66
2022/01/26 08:15:14;;;;;;;48.53;20.10;;;;;;;1.37;100.00;100743.63;4182088;28;22405;-61
2022/01/26 08:17:41;;;;;;;46.20;19.13;;;;;;;1.27;100.00;100740.63;4163735;28;20265;-63
2022/01/26 08:20:10;;;;;;;43.43;19.53;;;;;;;1.09;100.00;100739.78;4169732;28;22319;-68
2022/01/26 08:22:37;;;;;;;52.70;20.13;;;;;;;1.06;100.00;100742.56;4173779;28;20247;-66
2022/01/26 08:25:07;;;;;;;56.03;21.03;;;;;;;1.04;100.00;100733.94;4167850;28;20627;-64
2022/01/26 08:27:40;;;;;;;47.87;21.50;;;;;;;1.00;100.00;100740.22;4175157;28;21964;-65
2022/01/26 08:30:12;;;;;;;56.40;21.50;;;;;;;1.09;100.00;100742.41;4174506;28;20229;-65
2022/01/26 08:32:39;;;;;;;56.47;22.43;;;;;;;1.18;100.00;100747.19;4173747;28;20245;-66
2022/01/26 08:35:06;;;;;;;60.07;23.40;;;;;;;1.29;100.00;100748.41;4166989;28;20292;-65
2022/01/26 08:37:32;;;;;;;63.60;25.37;;;;;;;1.41;100.00;100753.88;4184613;28;20232;-64
2022/01/26 08:39:59;;;;;;;65.50;24.13;;;;;;;1.55;100.00;100750.56;4198632;28;21029;-65
2022/01/26 08:42:26;;;;;;;58.17;24.60;;;;;;;1.42;100.00;100752.09;4178545;28;20304;-65
2022/01/26 08:44:52;;;;;;;55.97;23.93;;;;;;;1.53;100.00;100754.19;4181065;28;20235;-64
2022/01/26 08:47:19;;;;;;;54.60;22.50;;;;;;;1.51;100.00;100750.78;4165865;28;20233;-62
2022/01/26 08:49:46;;;;;;;58.57;23.30;;;;;;;1.54;100.00;100742.75;4175450;28;20228;-65
2022/01/26 08:52:12;;;;;;;53.43;22.47;;;;;;;1.46;100.00;100740.53;4195217;28;20250;-63
2022/01/26 08:54:39;;;;;;;57.83;22.37;;;;;;;1.51;100.00;100749.00;4178152;28;20230;-63
2022/01/26 08:57:06;;;;;;;54.50;23.17;;;;;;;1.62;100.00;100740.59;4177892;28;21302;-65
2022/01/26 08:59:33;;;;;;;56.77;23.00;;;;;;;1.55;100.00;100744.47;4196456;28;22083;-64
2022/01/26 09:01:59;;;;;;;59.60;24.20;;;;;;;1.53;100.00;100739.28;4213440;28;20228;-65
2022/01/26 09:04:26;;;;;;;50.53;22.90;;;;;;;1.60;100.00;100739.81;4191880;28;20377;-64
2022/01/26 09:07:01;;;;;;;58.67;22.47;;;;;;;1.50;100.00;100736.84;4203544;28;20271;-64
2022/01/26 09:09:31;;;;;;;55.23;22.93;;;;;;;1.71;100.00;100734.00;4173191;28;20228;-68
2022/01/26 09:12:00;;;;;;;54.90;21.90;;;;;;;1.67;100.00;100739.41;4213737;28;20959;-62
2022/01/26 09:14:29;;;;;;;54.27;22.13;;;;;;;1.90;100.00;100729.50;4195973;28;20324;-64
2022/01/26 09:16:55;;;;;;;51.67;20.93;;;;;;;1.75;100.00;100730.28;4188226;28;20238;-68
2022/01/26 09:19:30;;;;;;;53.10;22.10;;;;;;;1.84;100.00;100735.06;4164941;28;20295;-65
2022/01/26 09:21:59;;;;;;;47.47;21.10;;;;;;;1.61;100.00;100733.63;4190551;28;21416;-63
2022/01/26 09:24:28;;;;;;;54.00;21.70;;;;;;;1.64;100.00;100733.50;4175468;28;20651;-62
2022/01/26 09:26:55;;;;;;;46.80;21.67;;;;;;;1.53;100.00;100741.06;4186148;28;20232;-65
2022/01/26 09:29:22;;;;;;;51.03;21.67;;;;;;;1.42;100.00;100734.59;4189963;28;20244;-64
2022/01/26 09:31:49;;;;;;;55.70;24.40;;;;;;;1.41;100.00;100742.56;4201732;28;21792;-63
2022/01/26 09:34:17;;;;;;;54.80;23.87;;;;;;;1.52;100.00;100736.72;4193743;28;20225;-64
2022/01/26 09:36:44;;;;;;;51.90;23.57;;;;;;;1.59;100.00;100732.88;4179590;28;22804;-63
2022/01/26 09:39:16;;;;;;;48.87;21.47;;;;;;;1.64;100.00;100741.38;4174880;28;20391;-64
2022/01/26 09:41:48;;;;;;;53.00;23.17;;;;;;;1.51;100.00;100735.06;4178874;28;20330;-62
2022/01/26 09:44:16;;;;;;;54.23;23.23;;;;;;;1.65;100.00;100736.03;4181198;28;20234;-65
2022/01/26 09:46:44;;;;;;;56.40;24.33;;;;;;;1.57;100.00;100734.72;4216838;28;20277;-63
2022/01/26 09:49:16;;;;;;;58.97;24.23;;;;;;;1.56;100.00;100736.50;4180154;28;20946;-66
2022/01/26 09:51:46;;;;;;;54.70;23.60;;;;;;;1.44;100.00;100743.22;4185543;28;20238;-64
2022/01/26 09:54:16;;;;;;;56.17;24.83;;;;;;;1.58;100.00;100729.41;4173044;28;20592;-64
2022/01/26 09:56:48;;;;;;;52.47;24.13;;;;;;;1.60;100.00;100732.78;4197548;28;21407;-62
2022/01/26 09:59:15;;;;;;;51.27;23.27;;;;;;;1.59;100.00;100728.50;4191511;28;20289;-63
2022/01/26 10:01:47;;;;;;;52.60;23.07;;;;;;;1.66;100.00;100727.25;4208989;28;22937;-63
2022/01/26 10:04:37;;;;;;;48.53;22.37;;;;;;;1.56;100.00;100726.00;4180817;28;20330;-64
2022/01/26 10:07:14;;;;;;;44.37;21.33;;;;;;;1.71;100.00;100726.13;4170156;28;21077;-62
2022/01/26 10:09:59;;;;;;;46.97;21.77;;;;;;;1.88;100.00;100716.44;4202548;28;20224;-64
2022/01/26 10:15:31;;;;;;;48.90;20.20;;;;;;;1.98;100.00;100700.19;4270191;28;20237;-62
2022/01/26 10:18:07;;;;;;;40.03;19.50;;;;;;;2.00;100.00;100699.19;4194164;28;20839;-64
2022/01/26 10:21:04;;;;;;;45.37;20.17;;;;;;;2.03;100.00;100700.78;4191355;28;20327;-63
2022/01/26 10:23:39;;;;;;;40.17;18.57;;;;;;;2.04;100.00;100695.47;4243102;28;21851;-62
2022/01/26 10:26:18;;;;;;;44.10;19.03;;;;;;;2.06;100.00;100692.72;4178806;28;20233;-66
2022/01/26 10:28:47;;;;;;;50.90;19.17;;;;;;;2.11;100.00;100685.47;4165503;28;20311;-64
2022/01/26 10:31:14;;;;;;;43.73;18.87;;;;;;;2.14;100.00;100689.72;4161980;28;20423;-66
2022/01/26 10:34:02;;;;;;;74.40;17.97;;;;;;;2.13;100.00;100693.25;4190689;28;22728;-67
2022/01/26 10:36:57;;;;;;;38.73;16.23;;;;;;;2.18;100.00;100691.22;4191734;28;20276;-64
2022/01/26 10:39:36;;;;;;;42.20;16.90;;;;;;;2.42;100.00;100695.09;4179225;28;20273;-62
2022/01/26 10:42:10;;;;;;;39.10;17.47;;;;;;;2.38;100.00;100690.09;4181071;28;20257;-67
2022/01/26 10:45:29;;;;;;;39.03;17.50;;;;;;;2.31;100.00;100687.81;4175510;28;20378;-66
2022/01/26 10:47:43;;;;;;;35.93;16.63;;;;;;;2.35;100.00;100683.25;4173162;28;21957;-66
2022/01/26 10:53:10;;;;;;;33.80;15.07;;;;;;;2.01;100.00;100671.16;4184478;28;21860;-67
2022/01/26 10:55:38;;;;;;;33.87;14.47;;;;;;;1.93;100.00;100671.56;4168184;28;20275;-65
2022/01/26 10:58:06;;;;;;;34.93;14.13;;;;;;;1.87;100.00;100667.53;4183855;28;22205;-67
2022/01/26 11:00:36;;;;;;;28.13;12.30;;;;;;;1.77;100.00;100676.81;4162573;28;20339;-66
2022/01/26 11:03:04;;;;;;;34.80;12.60;;;;;;;1.79;100.00;100653.97;4164136;28;20509;-65
2022/01/26 11:05:32;;;;;;;25.87;10.93;;;;;;;1.85;100.00;100658.00;4181101;28;20241;-65
2022/01/26 11:07:59;;;;;;;26.07;11.20;;;;;;;1.78;100.00;100659.28;4176074;28;20829;-68
2022/01/26 11:10:33;;;;;;;29.47;11.53;;;;;;;1.68;100.00;100648.44;4173870;28;20781;-63
2022/01/26 11:13:00;;;;;;;23.70;9.43;;;;;;;1.63;100.00;100653.09;4175582;28;20270;-68
2022/01/26 11:15:27;;;;;;;28.50;10.50;;;;;;;1.61;100.00;100647.91;4168869;28;20273;-66
2022/01/26 11:18:04;;;;;;;29.53;11.57;;;;;;;1.49;100.00;100640.72;4190624;28;20232;-66
2022/01/26 11:20:45;;;;;;;29.87;11.70;;;;;;;1.38;100.00;100645.69;4157671;28;20664;-63
2022/01/26 11:23:11;;;;;;;37.93;12.87;;;;;;;1.36;100.00;100639.66;4182955;28;20229;-64
2022/01/26 11:25:43;;;;;;;30.53;13.73;;;;;;;1.33;100.00;100634.59;4169653;28;20350;-69
2022/01/26 11:28:21;;;;;;;35.97;13.63;;;;;;;1.23;100.00;100634.22;4172779;28;21871;-67
2022/01/26 11:30:49;;;;;;;41.30;15.53;;;;;;;1.15;100.00;100633.81;4182694;28;22775;-68
2022/01/26 11:33:22;;;;;;;37.87;14.90;;;;;;;1.12;100.00;100637.41;4194107;28;21239;-68
2022/01/26 11:35:51;;;;;;;42.73;17.70;;;;;;;1.10;100.00;100633.16;4163600;28;21308;-67
2022/01/26 11:47:23;;;;;;;44.83;20.27;;;;;;;1.14;100.00;100625.06;4169842;28;20300;-66
2022/01/26 11:50:04;;;;;;;54.43;20.77;;;;;;;1.03;100.00;100622.16;4175169;28;20963;-65
2022/01/26 11:52:35;;;;;;;49.73;23.77;;;;;;;1.03;100.00;100623.03;4168665;28;20354;-65
2022/01/26 11:55:09;;;;;;;57.43;23.83;;;;;;;1.12;100.00;100620.84;4168676;28;20604;-66
2022/01/26 11:57:44;;;;;;;59.17;23.03;;;;;;;1.26;100.00;100611.34;4156821;28;20442;-66
2022/01/26 12:00:16;;;;;;;50.60;23.00;;;;;;;1.38;100.00;100603.72;4166136;28;20363;-65
2022/01/26 12:05:16;;;;;;;57.27;25.13;;;;;;;1.34;100.00;100608.31;4152951;28;23693;-66
2022/01/26 12:07:51;;;;;;;57.17;25.17;;;;;;;1.36;100.00;100613.44;4168515;28;20328;-67
2022/01/26 12:10:32;;;;;;;56.30;25.10;;;;;;;1.33;100.00;100595.28;4163494;28;20779;-69
2022/01/26 12:13:09;;;;;;;60.83;24.00;;;;;;;1.42;100.00;100589.53;4171509;28;22137;-68
2022/01/26 12:15:43;;;;;;;70.00;26.87;;;;;;;1.40;100.00;100594.00;4166296;28;20245;-72
2022/01/26 12:18:26;;;;;;;63.07;25.83;;;;;;;1.35;100.00;100586.38;4169586;28;20457;-70
2022/01/26 12:38:03;;;;;;;55.00;23.63;;;;;;;0.96;100.00;100589.34;4178125;28;20225;-71
2022/01/26 12:43:47;;;;;;;55.10;24.23;;;;;;;0.95;100.00;100572.78;4167646;28;20233;-68
2022/01/26 12:46:19;;;;;;;60.87;25.63;;;;;;;1.06;100.00;100564.38;4201474;28;20712;-69
2022/01/26 12:48:52;;;;;;;67.90;30.57;;;;;;;1.22;100.00;100557.38;4191186;28;20234;-68
2022/01/26 12:51:19;;;;;;;69.27;26.57;;;;;;;1.37;100.00;100552.22;4175982;28;20238;-68
2022/01/26 12:53:57;;;;;;;57.07;26.27;;;;;;;1.26;100.00;100553.66;4165603;28;20238;-69
2022/01/26 12:56:31;;;;;;;64.20;28.10;;;;;;;1.17;100.00;100551.53;4159559;28;20662;-65
2022/01/26 12:59:00;;;;;;;66.30;28.70;;;;;;;1.04;100.00;100555.72;4175360;28;20290;-68
2022/01/26 13:01:26;;;;;;;62.03;28.33;;;;;;;1.07;100.00;100558.19;4172092;28;22282;-67
2022/01/26 13:03:58;;;;;;;66.43;28.47;;;;;;;1.01;100.00;100548.88;4172085;28;20241;-67
2022/01/26 13:06:28;;;;;;;61.37;27.30;;;;;;;1.06;100.00;100556.50;4177910;28;20236;-65
2022/01/26 13:09:00;;;;;;;59.87;27.60;;;;;;;0.96;100.00;100548.28;4169603;28;20241;-66
2022/01/26 13:11:34;;;;;;;69.50;27.27;;;;;;;0.93;100.00;100547.59;4165257;28;20245;-67
2022/01/26 13:14:28;;;;;;;62.67;26.27;;;;;;;0.98;100.00;100556.91;4169306;28;23680;-67
2022/01/26 13:17:00;;;;;;;63.40;28.00;;;;;;;1.01;100.00;100550.66;4204847;28;20763;-67
2022/01/26 13:19:43;;;;;;;66.40;28.23;;;;;;;1.02;100.00;100541.88;4168686;28;20238;-68
2022/01/26 13:31:09;;;;;;;64.33;27.13;;;;;;;1.12;100.00;100531.72;4164905;28;20233;-67